sensor_id;sensor_type;location;lat;lon;timestamp;P1;durP1;ratioP1;P2;durP2;ratioP2
41927;SDS011;27616;51.420;6.788;2023-08-06T00:00:23;4.78;;;2.35;;
41927;SDS011;27616;51.420;6.788;2023-08-06T00:02:49;4.57;;;2.15;;
41927;SDS011;27616;51.420;6.788;2023-08-06T00:05:15;3.53;;;2.30;;
41927;SDS011;27616;51.420;6.788;2023-08-06T00:07:46;6.00;;;2.35;;
41927;SDS011;27616;51.420;6.788;2023-08-06T00:12:41;3.55;;;1.98;;
41927;SDS011;27616;51.420;6.788;2023-08-06T00:15:07;3.40;;;2.03;;
41927;SDS011;27616;51.420;6.788;2023-08-06T00:17:33;5.53;;;2.30;;
41927;SDS011;27616;51.420;6.788;2023-08-06T00:19:59;3.22;;;1.95;;
41927;SDS011;27616;51.420;6.788;2023-08-06T00:22:30;3.78;;;2.22;;
41927;SDS011;27616;51.420;6.788;2023-08-06T00:24:59;4.70;;;2.60;;
41927;SDS011;27616;51.420;6.788;2023-08-06T00:27:25;3.70;;;2.22;;
41927;SDS011;27616;51.420;6.788;2023-08-06T00:29:51;3.70;;;2.20;;
41927;SDS011;27616;51.420;6.788;2023-08-06T00:32:17;4.15;;;2.00;;
41927;SDS011;27616;51.420;6.788;2023-08-06T00:34:42;4.38;;;1.90;;
41927;SDS011;27616;51.420;6.788;2023-08-06T00:37:08;4.05;;;2.00;;
41927;SDS011;27616;51.420;6.788;2023-08-06T00:39:33;4.70;;;2.20;;
41927;SDS011;27616;51.420;6.788;2023-08-06T00:41:59;3.60;;;2.10;;
41927;SDS011;27616;51.420;6.788;2023-08-06T00:44:25;4.28;;;2.30;;
41927;SDS011;27616;51.420;6.788;2023-08-06T00:46:50;5.07;;;2.20;;
41927;SDS011;27616;51.420;6.788;2023-08-06T00:49:16;3.05;;;1.73;;
41927;SDS011;27616;51.420;6.788;2023-08-06T00:51:42;3.70;;;2.03;;
41927;SDS011;27616;51.420;6.788;2023-08-06T00:54:08;6.05;;;2.33;;
41927;SDS011;27616;51.420;6.788;2023-08-06T00:56:35;4.40;;;2.10;;
41927;SDS011;27616;51.420;6.788;2023-08-06T00:59:02;4.57;;;2.17;;
41927;SDS011;27616;51.420;6.788;2023-08-06T01:01:29;3.55;;;2.22;;
41927;SDS011;27616;51.420;6.788;2023-08-06T01:03:55;3.55;;;1.83;;
41927;SDS011;27616;51.420;6.788;2023-08-06T01:06:23;3.92;;;1.98;;
41927;SDS011;27616;51.420;6.788;2023-08-06T01:09:01;4.22;;;2.20;;
41927;SDS011;27616;51.420;6.788;2023-08-06T01:14:12;4.82;;;2.22;;
41927;SDS011;27616;51.420;6.788;2023-08-06T01:16:50;3.60;;;2.00;;
41927;SDS011;27616;51.420;6.788;2023-08-06T01:19:17;4.60;;;2.40;;
41927;SDS011;27616;51.420;6.788;2023-08-06T01:21:43;4.90;;;2.08;;
41927;SDS011;27616;51.420;6.788;2023-08-06T01:24:09;4.65;;;2.25;;
41927;SDS011;27616;51.420;6.788;2023-08-06T01:26:44;3.50;;;1.90;;
41927;SDS011;27616;51.420;6.788;2023-08-06T01:29:18;3.25;;;1.90;;
41927;SDS011;27616;51.420;6.788;2023-08-06T01:31:50;5.65;;;2.08;;
41927;SDS011;27616;51.420;6.788;2023-08-06T01:34:18;3.30;;;2.15;;
41927;SDS011;27616;51.420;6.788;2023-08-06T01:36:48;4.88;;;2.10;;
41927;SDS011;27616;51.420;6.788;2023-08-06T01:39:14;3.28;;;1.75;;
41927;SDS011;27616;51.420;6.788;2023-08-06T01:41:39;6.30;;;1.98;;
41927;SDS011;27616;51.420;6.788;2023-08-06T01:44:05;3.20;;;2.00;;
41927;SDS011;27616;51.420;6.788;2023-08-06T01:46:31;3.38;;;1.70;;
41927;SDS011;27616;51.420;6.788;2023-08-06T01:48:56;3.63;;;1.90;;
41927;SDS011;27616;51.420;6.788;2023-08-06T01:51:22;3.47;;;2.20;;
41927;SDS011;27616;51.420;6.788;2023-08-06T01:53:47;3.85;;;1.70;;
41927;SDS011;27616;51.420;6.788;2023-08-06T01:56:13;3.75;;;1.98;;
41927;SDS011;27616;51.420;6.788;2023-08-06T01:58:39;4.25;;;1.80;;
41927;SDS011;27616;51.420;6.788;2023-08-06T02:01:05;3.03;;;1.67;;
41927;SDS011;27616;51.420;6.788;2023-08-06T02:03:30;3.42;;;1.75;;
41927;SDS011;27616;51.420;6.788;2023-08-06T02:05:56;4.75;;;2.10;;
41927;SDS011;27616;51.420;6.788;2023-08-06T02:08:21;6.13;;;2.08;;
41927;SDS011;27616;51.420;6.788;2023-08-06T02:10:47;3.85;;;2.28;;
41927;SDS011;27616;51.420;6.788;2023-08-06T02:13:13;3.42;;;2.10;;
41927;SDS011;27616;51.420;6.788;2023-08-06T02:15:42;5.90;;;1.70;;
41927;SDS011;27616;51.420;6.788;2023-08-06T02:18:14;4.20;;;1.90;;
41927;SDS011;27616;51.420;6.788;2023-08-06T02:20:40;4.45;;;2.03;;
41927;SDS011;27616;51.420;6.788;2023-08-06T02:23:06;7.88;;;2.42;;
41927;SDS011;27616;51.420;6.788;2023-08-06T02:25:32;3.50;;;1.67;;
41927;SDS011;27616;51.420;6.788;2023-08-06T02:27:58;4.50;;;2.22;;
41927;SDS011;27616;51.420;6.788;2023-08-06T02:30:24;4.65;;;1.70;;
41927;SDS011;27616;51.420;6.788;2023-08-06T02:32:50;7.13;;;1.65;;
41927;SDS011;27616;51.420;6.788;2023-08-06T02:35:15;4.25;;;2.10;;
41927;SDS011;27616;51.420;6.788;2023-08-06T02:37:41;5.28;;;2.10;;
41927;SDS011;27616;51.420;6.788;2023-08-06T02:40:07;4.53;;;1.80;;
41927;SDS011;27616;51.420;6.788;2023-08-06T02:42:33;4.70;;;1.92;;
41927;SDS011;27616;51.420;6.788;2023-08-06T02:44:58;3.53;;;1.83;;
41927;SDS011;27616;51.420;6.788;2023-08-06T02:47:24;1.90;;;1.35;;
41927;SDS011;27616;51.420;6.788;2023-08-06T02:49:50;5.75;;;2.42;;
41927;SDS011;27616;51.420;6.788;2023-08-06T02:52:16;4.65;;;1.92;;
41927;SDS011;27616;51.420;6.788;2023-08-06T02:54:42;2.65;;;1.70;;
41927;SDS011;27616;51.420;6.788;2023-08-06T02:57:08;3.22;;;1.70;;
41927;SDS011;27616;51.420;6.788;2023-08-06T02:59:34;3.13;;;1.77;;
41927;SDS011;27616;51.420;6.788;2023-08-06T03:02:14;2.50;;;1.70;;
41927;SDS011;27616;51.420;6.788;2023-08-06T03:04:57;4.00;;;1.70;;
41927;SDS011;27616;51.420;6.788;2023-08-06T03:07:26;2.38;;;1.60;;
41927;SDS011;27616;51.420;6.788;2023-08-06T03:09:57;5.40;;;2.10;;
41927;SDS011;27616;51.420;6.788;2023-08-06T03:12:22;3.35;;;1.75;;
41927;SDS011;27616;51.420;6.788;2023-08-06T03:14:48;2.90;;;1.60;;
41927;SDS011;27616;51.420;6.788;2023-08-06T03:17:14;5.22;;;1.83;;
41927;SDS011;27616;51.420;6.788;2023-08-06T03:19:41;3.20;;;1.70;;
41927;SDS011;27616;51.420;6.788;2023-08-06T03:22:06;2.90;;;1.83;;
41927;SDS011;27616;51.420;6.788;2023-08-06T03:24:34;4.90;;;2.30;;
41927;SDS011;27616;51.420;6.788;2023-08-06T03:27:00;3.50;;;2.00;;
41927;SDS011;27616;51.420;6.788;2023-08-06T03:29:27;5.13;;;2.15;;
41927;SDS011;27616;51.420;6.788;2023-08-06T03:31:54;4.82;;;2.10;;
41927;SDS011;27616;51.420;6.788;2023-08-06T03:34:19;3.53;;;1.90;;
41927;SDS011;27616;51.420;6.788;2023-08-06T03:36:47;3.42;;;1.80;;
41927;SDS011;27616;51.420;6.788;2023-08-06T03:39:13;3.72;;;1.60;;
41927;SDS011;27616;51.420;6.788;2023-08-06T03:41:40;4.25;;;1.80;;
41927;SDS011;27616;51.420;6.788;2023-08-06T03:44:06;2.72;;;1.88;;
41927;SDS011;27616;51.420;6.788;2023-08-06T03:46:31;3.42;;;1.80;;
41927;SDS011;27616;51.420;6.788;2023-08-06T03:49:00;4.72;;;1.77;;
41927;SDS011;27616;51.420;6.788;2023-08-06T03:51:26;2.80;;;1.67;;
41927;SDS011;27616;51.420;6.788;2023-08-06T03:53:52;3.67;;;1.88;;
41927;SDS011;27616;51.420;6.788;2023-08-06T03:56:18;4.47;;;2.33;;
41927;SDS011;27616;51.420;6.788;2023-08-06T03:58:44;4.28;;;1.63;;
41927;SDS011;27616;51.420;6.788;2023-08-06T04:01:09;2.92;;;1.70;;
41927;SDS011;27616;51.420;6.788;2023-08-06T04:03:42;2.92;;;1.80;;
41927;SDS011;27616;51.420;6.788;2023-08-06T04:06:08;4.63;;;2.10;;
41927;SDS011;27616;51.420;6.788;2023-08-06T04:08:35;7.57;;;2.20;;
41927;SDS011;27616;51.420;6.788;2023-08-06T04:11:01;3.60;;;1.92;;
41927;SDS011;27616;51.420;6.788;2023-08-06T04:13:27;3.25;;;1.90;;
41927;SDS011;27616;51.420;6.788;2023-08-06T04:15:52;7.28;;;2.83;;
41927;SDS011;27616;51.420;6.788;2023-08-06T04:18:20;4.65;;;2.20;;
41927;SDS011;27616;51.420;6.788;2023-08-06T04:20:47;4.28;;;1.77;;
41927;SDS011;27616;51.420;6.788;2023-08-06T04:23:14;6.05;;;2.83;;
41927;SDS011;27616;51.420;6.788;2023-08-06T04:25:40;3.92;;;1.80;;
41927;SDS011;27616;51.420;6.788;2023-08-06T04:28:06;3.42;;;1.90;;
41927;SDS011;27616;51.420;6.788;2023-08-06T04:30:32;2.70;;;1.60;;
41927;SDS011;27616;51.420;6.788;2023-08-06T04:32:58;3.55;;;2.03;;
41927;SDS011;27616;51.420;6.788;2023-08-06T04:35:25;3.20;;;1.60;;
41927;SDS011;27616;51.420;6.788;2023-08-06T04:37:51;3.72;;;1.83;;
41927;SDS011;27616;51.420;6.788;2023-08-06T04:40:16;4.43;;;2.10;;
41927;SDS011;27616;51.420;6.788;2023-08-06T04:42:43;6.10;;;1.75;;
41927;SDS011;27616;51.420;6.788;2023-08-06T04:45:08;3.30;;;1.70;;
41927;SDS011;27616;51.420;6.788;2023-08-06T04:47:34;4.45;;;2.03;;
41927;SDS011;27616;51.420;6.788;2023-08-06T04:50:00;3.28;;;1.95;;
41927;SDS011;27616;51.420;6.788;2023-08-06T04:52:26;3.45;;;1.90;;
41927;SDS011;27616;51.420;6.788;2023-08-06T04:54:53;4.07;;;2.10;;
41927;SDS011;27616;51.420;6.788;2023-08-06T04:57:19;5.28;;;1.98;;
41927;SDS011;27616;51.420;6.788;2023-08-06T04:59:45;4.20;;;2.10;;
41927;SDS011;27616;51.420;6.788;2023-08-06T05:02:11;3.85;;;2.00;;
41927;SDS011;27616;51.420;6.788;2023-08-06T05:04:36;3.75;;;1.98;;
41927;SDS011;27616;51.420;6.788;2023-08-06T05:07:02;3.30;;;2.03;;
41927;SDS011;27616;51.420;6.788;2023-08-06T05:09:28;4.35;;;1.95;;
41927;SDS011;27616;51.420;6.788;2023-08-06T05:11:54;3.50;;;1.98;;
41927;SDS011;27616;51.420;6.788;2023-08-06T05:14:19;8.27;;;2.15;;
41927;SDS011;27616;51.420;6.788;2023-08-06T05:16:45;4.05;;;1.80;;
41927;SDS011;27616;51.420;6.788;2023-08-06T05:19:10;5.93;;;2.45;;
41927;SDS011;27616;51.420;6.788;2023-08-06T05:21:36;3.95;;;2.20;;
41927;SDS011;27616;51.420;6.788;2023-08-06T05:24:02;4.32;;;2.25;;
41927;SDS011;27616;51.420;6.788;2023-08-06T05:26:27;7.22;;;2.28;;
41927;SDS011;27616;51.420;6.788;2023-08-06T05:28:53;5.07;;;2.03;;
41927;SDS011;27616;51.420;6.788;2023-08-06T05:31:18;3.72;;;1.67;;
41927;SDS011;27616;51.420;6.788;2023-08-06T05:33:44;4.15;;;2.10;;
41927;SDS011;27616;51.420;6.788;2023-08-06T05:36:10;3.38;;;1.88;;
41927;SDS011;27616;51.420;6.788;2023-08-06T05:38:35;3.45;;;1.80;;
41927;SDS011;27616;51.420;6.788;2023-08-06T05:41:01;3.30;;;1.80;;
41927;SDS011;27616;51.420;6.788;2023-08-06T05:43:26;3.70;;;1.52;;
41927;SDS011;27616;51.420;6.788;2023-08-06T05:45:52;3.53;;;1.63;;
41927;SDS011;27616;51.420;6.788;2023-08-06T05:48:18;3.88;;;1.65;;
41927;SDS011;27616;51.420;6.788;2023-08-06T05:50:43;4.05;;;1.65;;
41927;SDS011;27616;51.420;6.788;2023-08-06T05:53:09;3.55;;;1.35;;
41927;SDS011;27616;51.420;6.788;2023-08-06T05:55:34;2.38;;;1.40;;
41927;SDS011;27616;51.420;6.788;2023-08-06T05:58:00;3.42;;;1.70;;
41927;SDS011;27616;51.420;6.788;2023-08-06T06:00:26;2.30;;;1.30;;
41927;SDS011;27616;51.420;6.788;2023-08-06T06:02:51;4.15;;;1.55;;
41927;SDS011;27616;51.420;6.788;2023-08-06T06:05:17;3.83;;;1.50;;
41927;SDS011;27616;51.420;6.788;2023-08-06T06:07:43;3.95;;;1.40;;
41927;SDS011;27616;51.420;6.788;2023-08-06T06:10:08;2.70;;;1.70;;
41927;SDS011;27616;51.420;6.788;2023-08-06T06:12:34;3.45;;;1.55;;
41927;SDS011;27616;51.420;6.788;2023-08-06T06:15:00;4.32;;;1.90;;
41927;SDS011;27616;51.420;6.788;2023-08-06T06:17:26;2.58;;;1.33;;
41927;SDS011;27616;51.420;6.788;2023-08-06T06:19:52;4.82;;;1.40;;
41927;SDS011;27616;51.420;6.788;2023-08-06T06:22:18;3.17;;;1.35;;
41927;SDS011;27616;51.420;6.788;2023-08-06T06:24:43;6.38;;;1.50;;
41927;SDS011;27616;51.420;6.788;2023-08-06T06:27:09;3.22;;;1.65;;
41927;SDS011;27616;51.420;6.788;2023-08-06T06:29:34;4.07;;;1.23;;
41927;SDS011;27616;51.420;6.788;2023-08-06T06:32:00;2.83;;;1.50;;
41927;SDS011;27616;51.420;6.788;2023-08-06T06:34:26;3.15;;;1.35;;
41927;SDS011;27616;51.420;6.788;2023-08-06T06:36:51;2.95;;;1.50;;
41927;SDS011;27616;51.420;6.788;2023-08-06T06:39:17;3.08;;;1.48;;
41927;SDS011;27616;51.420;6.788;2023-08-06T06:41:43;2.85;;;1.30;;
41927;SDS011;27616;51.420;6.788;2023-08-06T06:44:17;3.03;;;1.40;;
41927;SDS011;27616;51.420;6.788;2023-08-06T06:46:45;2.45;;;1.33;;
41927;SDS011;27616;51.420;6.788;2023-08-06T06:49:11;4.28;;;2.20;;
41927;SDS011;27616;51.420;6.788;2023-08-06T06:51:36;3.28;;;1.65;;
41927;SDS011;27616;51.420;6.788;2023-08-06T06:54:02;3.80;;;1.50;;
41927;SDS011;27616;51.420;6.788;2023-08-06T06:56:27;3.30;;;1.50;;
41927;SDS011;27616;51.420;6.788;2023-08-06T06:58:53;3.58;;;1.30;;
41927;SDS011;27616;51.420;6.788;2023-08-06T07:01:19;5.68;;;1.55;;
41927;SDS011;27616;51.420;6.788;2023-08-06T07:03:44;3.35;;;1.60;;
41927;SDS011;27616;51.420;6.788;2023-08-06T07:06:10;4.03;;;1.80;;
41927;SDS011;27616;51.420;6.788;2023-08-06T07:08:37;2.92;;;1.60;;
41927;SDS011;27616;51.420;6.788;2023-08-06T07:11:03;3.58;;;1.55;;
41927;SDS011;27616;51.420;6.788;2023-08-06T07:13:30;3.17;;;1.50;;
41927;SDS011;27616;51.420;6.788;2023-08-06T07:15:56;4.03;;;1.70;;
41927;SDS011;27616;51.420;6.788;2023-08-06T07:18:22;1.77;;;1.15;;
41927;SDS011;27616;51.420;6.788;2023-08-06T07:20:51;2.88;;;1.65;;
41927;SDS011;27616;51.420;6.788;2023-08-06T07:23:22;2.70;;;1.30;;
41927;SDS011;27616;51.420;6.788;2023-08-06T07:25:49;3.50;;;1.40;;
41927;SDS011;27616;51.420;6.788;2023-08-06T07:28:15;2.20;;;1.40;;
41927;SDS011;27616;51.420;6.788;2023-08-06T07:30:42;2.92;;;1.50;;
41927;SDS011;27616;51.420;6.788;2023-08-06T07:33:09;1.92;;;1.40;;
41927;SDS011;27616;51.420;6.788;2023-08-06T07:35:35;3.17;;;1.40;;
41927;SDS011;27616;51.420;6.788;2023-08-06T07:38:01;2.03;;;1.50;;
41927;SDS011;27616;51.420;6.788;2023-08-06T07:40:27;2.88;;;1.60;;
41927;SDS011;27616;51.420;6.788;2023-08-06T07:42:53;2.40;;;1.73;;
41927;SDS011;27616;51.420;6.788;2023-08-06T07:45:18;2.33;;;1.35;;
41927;SDS011;27616;51.420;6.788;2023-08-06T07:47:44;3.65;;;1.58;;
41927;SDS011;27616;51.420;6.788;2023-08-06T07:50:09;3.35;;;1.65;;
41927;SDS011;27616;51.420;6.788;2023-08-06T07:52:35;2.42;;;1.45;;
41927;SDS011;27616;51.420;6.788;2023-08-06T07:55:01;2.65;;;1.40;;
41927;SDS011;27616;51.420;6.788;2023-08-06T07:57:32;1.92;;;1.35;;
41927;SDS011;27616;51.420;6.788;2023-08-06T07:59:59;2.92;;;1.92;;
41927;SDS011;27616;51.420;6.788;2023-08-06T08:02:25;3.25;;;1.67;;
41927;SDS011;27616;51.420;6.788;2023-08-06T08:04:51;4.07;;;1.90;;
41927;SDS011;27616;51.420;6.788;2023-08-06T08:07:16;4.63;;;2.42;;
41927;SDS011;27616;51.420;6.788;2023-08-06T08:09:42;3.22;;;2.30;;
41927;SDS011;27616;51.420;6.788;2023-08-06T08:12:07;4.20;;;2.85;;
41927;SDS011;27616;51.420;6.788;2023-08-06T08:14:33;6.20;;;3.50;;
41927;SDS011;27616;51.420;6.788;2023-08-06T08:17:03;5.00;;;2.55;;
41927;SDS011;27616;51.420;6.788;2023-08-06T08:19:30;4.15;;;2.30;;
41927;SDS011;27616;51.420;6.788;2023-08-06T08:21:56;3.83;;;2.55;;
41927;SDS011;27616;51.420;6.788;2023-08-06T08:24:22;6.47;;;2.92;;
41927;SDS011;27616;51.420;6.788;2023-08-06T08:26:51;4.40;;;2.70;;
41927;SDS011;27616;51.420;6.788;2023-08-06T08:29:17;4.85;;;2.90;;
41927;SDS011;27616;51.420;6.788;2023-08-06T08:31:44;4.18;;;2.65;;
41927;SDS011;27616;51.420;6.788;2023-08-06T08:34:09;5.82;;;2.53;;
41927;SDS011;27616;51.420;6.788;2023-08-06T08:36:35;5.43;;;2.13;;
41927;SDS011;27616;51.420;6.788;2023-08-06T08:39:01;3.75;;;2.10;;
41927;SDS011;27616;51.420;6.788;2023-08-06T08:41:30;4.43;;;1.95;;
41927;SDS011;27616;51.420;6.788;2023-08-06T08:43:56;3.95;;;1.90;;
41927;SDS011;27616;51.420;6.788;2023-08-06T08:46:25;4.40;;;2.17;;
41927;SDS011;27616;51.420;6.788;2023-08-06T08:48:52;3.92;;;1.83;;
41927;SDS011;27616;51.420;6.788;2023-08-06T08:51:19;5.65;;;2.60;;
41927;SDS011;27616;51.420;6.788;2023-08-06T08:53:45;3.40;;;1.80;;
41927;SDS011;27616;51.420;6.788;2023-08-06T08:56:13;4.95;;;2.88;;
41927;SDS011;27616;51.420;6.788;2023-08-06T08:58:39;4.50;;;2.50;;
41927;SDS011;27616;51.420;6.788;2023-08-06T09:01:05;4.95;;;2.45;;
41927;SDS011;27616;51.420;6.788;2023-08-06T09:03:33;5.75;;;2.78;;
41927;SDS011;27616;51.420;6.788;2023-08-06T09:06:01;3.92;;;2.42;;
41927;SDS011;27616;51.420;6.788;2023-08-06T09:08:30;4.47;;;2.38;;
41927;SDS011;27616;51.420;6.788;2023-08-06T09:11:01;4.53;;;2.40;;
41927;SDS011;27616;51.420;6.788;2023-08-06T09:13:27;5.43;;;1.95;;
41927;SDS011;27616;51.420;6.788;2023-08-06T09:15:53;5.65;;;2.70;;
41927;SDS011;27616;51.420;6.788;2023-08-06T09:18:29;3.42;;;2.05;;
41927;SDS011;27616;51.420;6.788;2023-08-06T09:20:56;3.28;;;1.80;;
41927;SDS011;27616;51.420;6.788;2023-08-06T09:23:28;8.02;;;2.05;;
41927;SDS011;27616;51.420;6.788;2023-08-06T09:25:58;5.13;;;2.03;;
41927;SDS011;27616;51.420;6.788;2023-08-06T09:28:34;6.05;;;1.77;;
41927;SDS011;27616;51.420;6.788;2023-08-06T09:31:03;5.55;;;1.55;;
41927;SDS011;27616;51.420;6.788;2023-08-06T09:33:29;5.25;;;1.80;;
41927;SDS011;27616;51.420;6.788;2023-08-06T09:35:54;3.05;;;1.40;;
41927;SDS011;27616;51.420;6.788;2023-08-06T09:38:20;4.05;;;2.00;;
41927;SDS011;27616;51.420;6.788;2023-08-06T09:40:46;4.38;;;1.55;;
41927;SDS011;27616;51.420;6.788;2023-08-06T09:43:12;4.72;;;1.60;;
41927;SDS011;27616;51.420;6.788;2023-08-06T09:45:38;4.75;;;1.80;;
41927;SDS011;27616;51.420;6.788;2023-08-06T09:48:05;4.25;;;1.73;;
41927;SDS011;27616;51.420;6.788;2023-08-06T09:50:33;3.90;;;1.90;;
41927;SDS011;27616;51.420;6.788;2023-08-06T09:53:03;6.00;;;2.50;;
41927;SDS011;27616;51.420;6.788;2023-08-06T09:55:30;3.38;;;2.10;;
41927;SDS011;27616;51.420;6.788;2023-08-06T09:57:56;5.50;;;2.28;;
41927;SDS011;27616;51.420;6.788;2023-08-06T10:00:24;5.40;;;2.53;;
41927;SDS011;27616;51.420;6.788;2023-08-06T10:02:51;6.70;;;2.40;;
41927;SDS011;27616;51.420;6.788;2023-08-06T10:05:21;4.72;;;2.50;;
41927;SDS011;27616;51.420;6.788;2023-08-06T10:07:47;5.88;;;2.80;;
41927;SDS011;27616;51.420;6.788;2023-08-06T10:10:15;6.75;;;2.95;;
41927;SDS011;27616;51.420;6.788;2023-08-06T10:12:51;5.40;;;3.22;;
41927;SDS011;27616;51.420;6.788;2023-08-06T10:15:22;5.18;;;3.13;;
41927;SDS011;27616;51.420;6.788;2023-08-06T10:17:51;5.15;;;3.45;;
41927;SDS011;27616;51.420;6.788;2023-08-06T10:20:19;5.82;;;3.90;;
41927;SDS011;27616;51.420;6.788;2023-08-06T10:22:59;7.22;;;3.60;;
41927;SDS011;27616;51.420;6.788;2023-08-06T10:25:32;6.10;;;3.47;;
41927;SDS011;27616;51.420;6.788;2023-08-06T10:27:59;5.57;;;3.50;;
41927;SDS011;27616;51.420;6.788;2023-08-06T10:30:31;7.38;;;3.85;;
41927;SDS011;27616;51.420;6.788;2023-08-06T10:32:58;6.10;;;3.58;;
41927;SDS011;27616;51.420;6.788;2023-08-06T10:35:30;4.85;;;3.40;;
41927;SDS011;27616;51.420;6.788;2023-08-06T10:38:25;5.30;;;3.58;;
41927;SDS011;27616;51.420;6.788;2023-08-06T10:43:28;5.97;;;3.90;;
41927;SDS011;27616;51.420;6.788;2023-08-06T10:45:55;6.60;;;3.65;;
41927;SDS011;27616;51.420;6.788;2023-08-06T10:48:33;5.55;;;2.50;;
41927;SDS011;27616;51.420;6.788;2023-08-06T10:51:02;3.55;;;1.80;;
41927;SDS011;27616;51.420;6.788;2023-08-06T10:53:29;3.58;;;1.88;;
41927;SDS011;27616;51.420;6.788;2023-08-06T10:55:55;1.95;;;1.08;;
41927;SDS011;27616;51.420;6.788;2023-08-06T10:58:20;1.92;;;1.00;;
41927;SDS011;27616;51.420;6.788;2023-08-06T11:00:46;1.40;;;0.90;;
41927;SDS011;27616;51.420;6.788;2023-08-06T11:03:12;1.17;;;0.80;;
41927;SDS011;27616;51.420;6.788;2023-08-06T11:05:38;1.25;;;0.77;;
41927;SDS011;27616;51.420;6.788;2023-08-06T11:08:04;1.88;;;0.65;;
41927;SDS011;27616;51.420;6.788;2023-08-06T11:10:32;1.75;;;0.60;;
41927;SDS011;27616;51.420;6.788;2023-08-06T11:13:02;0.65;;;0.60;;
41927;SDS011;27616;51.420;6.788;2023-08-06T11:15:29;0.70;;;0.50;;
41927;SDS011;27616;51.420;6.788;2023-08-06T11:17:55;1.00;;;0.63;;
41927;SDS011;27616;51.420;6.788;2023-08-06T11:20:21;0.90;;;0.52;;
41927;SDS011;27616;51.420;6.788;2023-08-06T11:22:48;1.42;;;0.80;;
41927;SDS011;27616;51.420;6.788;2023-08-06T11:25:13;3.60;;;0.60;;
41927;SDS011;27616;51.420;6.788;2023-08-06T11:27:39;1.33;;;0.73;;
41927;SDS011;27616;51.420;6.788;2023-08-06T11:30:05;0.93;;;0.63;;
41927;SDS011;27616;51.420;6.788;2023-08-06T11:32:31;1.83;;;0.85;;
41927;SDS011;27616;51.420;6.788;2023-08-06T11:34:58;1.80;;;0.80;;
41927;SDS011;27616;51.420;6.788;2023-08-06T11:37:23;2.30;;;1.00;;
41927;SDS011;27616;51.420;6.788;2023-08-06T11:39:50;1.48;;;0.90;;
41927;SDS011;27616;51.420;6.788;2023-08-06T11:42:16;2.25;;;0.80;;
41927;SDS011;27616;51.420;6.788;2023-08-06T11:44:42;1.60;;;0.63;;
41927;SDS011;27616;51.420;6.788;2023-08-06T11:47:11;2.08;;;1.10;;
41927;SDS011;27616;51.420;6.788;2023-08-06T11:52:19;1.52;;;0.75;;
41927;SDS011;27616;51.420;6.788;2023-08-06T11:55:02;1.58;;;0.73;;
41927;SDS011;27616;51.420;6.788;2023-08-06T11:57:31;1.42;;;0.65;;
41927;SDS011;27616;51.420;6.788;2023-08-06T12:00:07;0.95;;;0.65;;
41927;SDS011;27616;51.420;6.788;2023-08-06T12:02:43;1.67;;;0.77;;
41927;SDS011;27616;51.420;6.788;2023-08-06T12:05:16;1.15;;;0.70;;
41927;SDS011;27616;51.420;6.788;2023-08-06T12:07:47;1.15;;;0.70;;
41927;SDS011;27616;51.420;6.788;2023-08-06T12:10:14;1.98;;;0.80;;
41927;SDS011;27616;51.420;6.788;2023-08-06T12:12:40;1.05;;;0.80;;
41927;SDS011;27616;51.420;6.788;2023-08-06T12:15:08;2.10;;;1.10;;
41927;SDS011;27616;51.420;6.788;2023-08-06T12:17:34;2.22;;;1.00;;
41927;SDS011;27616;51.420;6.788;2023-08-06T12:20:01;1.50;;;0.77;;
41927;SDS011;27616;51.420;6.788;2023-08-06T12:22:29;1.15;;;0.80;;
41927;SDS011;27616;51.420;6.788;2023-08-06T12:25:03;1.13;;;0.75;;
41927;SDS011;27616;51.420;6.788;2023-08-06T12:27:37;2.22;;;0.90;;
41927;SDS011;27616;51.420;6.788;2023-08-06T12:30:04;1.73;;;0.90;;
41927;SDS011;27616;51.420;6.788;2023-08-06T12:32:30;2.58;;;1.15;;
41927;SDS011;27616;51.420;6.788;2023-08-06T12:34:56;2.50;;;1.05;;
41927;SDS011;27616;51.420;6.788;2023-08-06T12:37:22;1.90;;;0.90;;
41927;SDS011;27616;51.420;6.788;2023-08-06T12:39:49;2.05;;;1.23;;
41927;SDS011;27616;51.420;6.788;2023-08-06T12:42:14;3.20;;;1.25;;
41927;SDS011;27616;51.420;6.788;2023-08-06T12:44:40;2.33;;;1.25;;
41927;SDS011;27616;51.420;6.788;2023-08-06T12:47:07;2.22;;;1.40;;
41927;SDS011;27616;51.420;6.788;2023-08-06T12:49:32;2.88;;;1.30;;
41927;SDS011;27616;51.420;6.788;2023-08-06T12:51:58;2.67;;;1.35;;
41927;SDS011;27616;51.420;6.788;2023-08-06T12:54:25;6.70;;;2.38;;
41927;SDS011;27616;51.420;6.788;2023-08-06T12:56:51;6.63;;;2.63;;
41927;SDS011;27616;51.420;6.788;2023-08-06T12:59:17;2.92;;;1.30;;
41927;SDS011;27616;51.420;6.788;2023-08-06T13:01:43;4.03;;;1.73;;
41927;SDS011;27616;51.420;6.788;2023-08-06T13:04:09;3.72;;;1.65;;
41927;SDS011;27616;51.420;6.788;2023-08-06T13:06:36;5.03;;;2.10;;
41927;SDS011;27616;51.420;6.788;2023-08-06T13:09:02;13.60;;;4.05;;
41927;SDS011;27616;51.420;6.788;2023-08-06T13:11:29;3.85;;;2.30;;
41927;SDS011;27616;51.420;6.788;2023-08-06T13:13:59;5.40;;;2.53;;
41927;SDS011;27616;51.420;6.788;2023-08-06T13:16:29;4.82;;;2.35;;
41927;SDS011;27616;51.420;6.788;2023-08-06T13:18:54;5.22;;;2.20;;
41927;SDS011;27616;51.420;6.788;2023-08-06T13:21:20;4.05;;;2.00;;
41927;SDS011;27616;51.420;6.788;2023-08-06T13:23:46;4.15;;;2.00;;
41927;SDS011;27616;51.420;6.788;2023-08-06T13:26:12;4.32;;;1.92;;
41927;SDS011;27616;51.420;6.788;2023-08-06T13:28:38;3.13;;;1.65;;
41927;SDS011;27616;51.420;6.788;2023-08-06T13:31:04;3.00;;;1.77;;
41927;SDS011;27616;51.420;6.788;2023-08-06T13:33:30;3.10;;;1.58;;
41927;SDS011;27616;51.420;6.788;2023-08-06T13:35:55;4.60;;;1.70;;
41927;SDS011;27616;51.420;6.788;2023-08-06T13:38:21;4.45;;;1.60;;
41927;SDS011;27616;51.420;6.788;2023-08-06T13:40:46;3.35;;;1.55;;
41927;SDS011;27616;51.420;6.788;2023-08-06T13:43:13;4.40;;;1.92;;
41927;SDS011;27616;51.420;6.788;2023-08-06T13:45:40;3.90;;;1.70;;
41927;SDS011;27616;51.420;6.788;2023-08-06T13:48:06;3.60;;;1.40;;
41927;SDS011;27616;51.420;6.788;2023-08-06T13:50:32;3.97;;;1.58;;
41927;SDS011;27616;51.420;6.788;2023-08-06T13:52:57;2.63;;;1.42;;
41927;SDS011;27616;51.420;6.788;2023-08-06T13:55:23;4.13;;;1.40;;
41927;SDS011;27616;51.420;6.788;2023-08-06T13:57:49;2.97;;;1.58;;
41927;SDS011;27616;51.420;6.788;2023-08-06T14:00:15;2.22;;;1.38;;
41927;SDS011;27616;51.420;6.788;2023-08-06T14:02:41;2.70;;;1.50;;
41927;SDS011;27616;51.420;6.788;2023-08-06T14:05:09;3.30;;;1.50;;
41927;SDS011;27616;51.420;6.788;2023-08-06T14:07:35;3.65;;;1.60;;
41927;SDS011;27616;51.420;6.788;2023-08-06T14:10:00;2.38;;;1.38;;
41927;SDS011;27616;51.420;6.788;2023-08-06T14:12:26;1.95;;;1.02;;
41927;SDS011;27616;51.420;6.788;2023-08-06T14:14:51;2.88;;;1.45;;
41927;SDS011;27616;51.420;6.788;2023-08-06T14:17:17;3.03;;;1.20;;
41927;SDS011;27616;51.420;6.788;2023-08-06T14:19:43;3.13;;;1.40;;
41927;SDS011;27616;51.420;6.788;2023-08-06T14:22:08;2.45;;;1.40;;
41927;SDS011;27616;51.420;6.788;2023-08-06T14:24:34;2.10;;;1.00;;
41927;SDS011;27616;51.420;6.788;2023-08-06T14:26:59;2.70;;;1.23;;
41927;SDS011;27616;51.420;6.788;2023-08-06T14:29:25;2.15;;;1.00;;
41927;SDS011;27616;51.420;6.788;2023-08-06T14:31:51;1.88;;;1.00;;
41927;SDS011;27616;51.420;6.788;2023-08-06T14:34:16;2.25;;;1.10;;
41927;SDS011;27616;51.420;6.788;2023-08-06T14:36:42;2.90;;;1.30;;
41927;SDS011;27616;51.420;6.788;2023-08-06T14:39:08;2.22;;;0.93;;
41927;SDS011;27616;51.420;6.788;2023-08-06T14:41:33;1.85;;;1.00;;
41927;SDS011;27616;51.420;6.788;2023-08-06T14:43:59;2.13;;;1.20;;
41927;SDS011;27616;51.420;6.788;2023-08-06T14:46:25;4.18;;;1.83;;
41927;SDS011;27616;51.420;6.788;2023-08-06T14:48:50;1.70;;;1.08;;
41927;SDS011;27616;51.420;6.788;2023-08-06T14:51:16;3.15;;;1.45;;
41927;SDS011;27616;51.420;6.788;2023-08-06T14:53:44;3.63;;;1.77;;
41927;SDS011;27616;51.420;6.788;2023-08-06T14:56:10;3.17;;;1.10;;